KINS/INS METAR and TAF weather

Enter ICAO airport designator
Station Type Date Time Source
KINS METAR 2019/07/17 17:58 UTC NOAA

KINS 171758Z AUTO 11003KT 10SM FEW170 32/M06 A2995 RMK AO2 SLP087 T03181065 10318 20192 52006 $


Station Type Date Time Source
KINS Decoded METAR 2019/07/17 17:58 UTC NOAA

Indian Springs, Indian Springs Auxiliary AFLD Nellis AFB, NV, United States (KINS) 36-35N 115-40W
Jul 17, 2019 - 01:58 PM EDT / 2019.07.17 1758 UTC
Wind: from the ESE (110 degrees) at 3 MPH (3 KT):0
Visibility: 10 mile(s):0
Sky conditions: mostly clear
Temperature: 89.2 F (31.8 C)
Dew Point: 20.3 F (-6.5 C)
Relative Humidity: 7%
Pressure (altimeter): 29.95 in. Hg (1014 hPa)
Pressure tendency: 0.02 inches (0.6 hPa) higher than three hours ago
ob: KINS 171758Z AUTO 11003KT 10SM FEW170 32/M06 A2995 RMK AO2 SLP087 T03181065 10318 20192 52006
cycle: 18

Station Type Date Time Source
KINS TAF 2019/07/17 13:59 UTC NOAA

TAF KINS 171255Z 1713/1819 VRB06KT 9999 SKC QNH2987INS
BECMG 1717/1718 22012G18KT 9999 SKC QNH2984INS
TEMPO 1722/1802 22015G25KT 530009 530906
BECMG 1802/1803 23009KT 9999 SKC QNH2990INS TX40/1722Z TN19/1713Z

Example: see airport list